createdAt,value
2022-11-22T00:00:56.096Z,6.62
2022-11-22T00:03:23.979Z,6.56
2022-11-22T00:05:52.201Z,6.54
2022-11-22T00:08:20.154Z,6.52
2022-11-22T00:10:49.857Z,6.50
2022-11-22T00:13:19.719Z,6.48
2022-11-22T00:15:59.554Z,6.47
2022-11-22T00:18:27.532Z,6.44
2022-11-22T00:20:55.420Z,6.42
2022-11-22T00:23:23.530Z,6.39
2022-11-22T00:25:51.603Z,6.38
2022-11-22T00:28:20.933Z,6.35
2022-11-22T00:30:48.880Z,6.30
2022-11-22T00:33:16.877Z,6.27
2022-11-22T00:35:46.644Z,6.26
2022-11-22T00:38:14.607Z,6.22
2022-11-22T00:40:42.631Z,6.21
2022-11-22T00:43:10.604Z,6.22
2022-11-22T00:45:41.953Z,6.19
2022-11-22T00:48:09.868Z,6.12
2022-11-22T00:50:37.831Z,6.14
2022-11-22T00:53:05.853Z,6.11
2022-11-22T00:55:33.753Z,6.07
2022-11-22T00:58:01.882Z,6.02
2022-11-22T01:00:29.870Z,6.01
2022-11-22T01:02:59.210Z,5.98
2022-11-22T01:05:27.134Z,6.01
2022-11-22T01:07:55.269Z,5.91
2022-11-22T01:10:23.903Z,5.92
2022-11-22T01:12:51.818Z,5.92
2022-11-22T01:15:19.882Z,5.91
2022-11-22T01:17:47.785Z,5.88
2022-11-22T01:20:17.096Z,5.89
2022-11-22T01:22:45.122Z,5.80
2022-11-22T01:25:13.343Z,5.65
2022-11-22T01:27:41.344Z,5.51
2022-11-22T01:30:10.141Z,5.69
2022-11-22T01:32:38.023Z,5.68
2022-11-22T01:35:06.648Z,5.75
2022-11-22T01:37:36.253Z,5.79
2022-11-22T01:40:04.550Z,5.82
2022-11-22T01:42:44.574Z,5.80
2022-11-22T01:45:50.027Z,5.85
2022-11-22T01:48:39.085Z,5.80
2022-11-22T01:51:15.571Z,5.87
2022-11-22T01:53:45.363Z,5.86
2022-11-22T01:56:18.027Z,5.80
2022-11-22T01:58:50.145Z,5.77
2022-11-22T02:01:18.252Z,5.77
2022-11-22T02:03:50.765Z,5.76
2022-11-22T02:06:19.886Z,5.72
2022-11-22T02:08:56.204Z,5.64
2022-11-22T02:11:30.990Z,5.61
2022-11-22T02:14:01.969Z,5.57
2022-11-22T02:16:30.089Z,5.50
2022-11-22T02:18:58.030Z,5.44
2022-11-22T02:21:25.986Z,5.36
2022-11-22T02:23:58.689Z,5.31
2022-11-22T02:26:30.329Z,5.29
2022-11-22T02:29:05.269Z,5.17
2022-11-22T02:31:39.367Z,5.05
2022-11-22T02:34:07.379Z,4.96
2022-11-22T02:36:39.704Z,4.89
2022-11-22T02:39:10.165Z,4.88
2022-11-22T02:41:39.966Z,4.77
2022-11-22T02:44:10.600Z,4.74
2022-11-22T02:46:48.040Z,4.76
2022-11-22T02:49:18.715Z,4.72
2022-11-22T02:51:46.977Z,4.38
2022-11-22T02:54:15.179Z,4.47
2022-11-22T02:56:44.769Z,4.55
2022-11-22T02:59:12.731Z,4.46
2022-11-22T03:01:40.943Z,4.60
2022-11-22T03:04:08.933Z,4.67
2022-11-22T03:06:37.065Z,4.74
2022-11-22T03:09:04.954Z,4.73
2022-11-22T03:11:32.891Z,4.70
2022-11-22T03:14:02.154Z,4.65
2022-11-22T03:16:30.902Z,4.41
2022-11-22T03:18:58.796Z,4.51
2022-11-22T03:21:26.820Z,4.50
2022-11-22T03:23:55.840Z,4.44
2022-11-22T03:26:23.793Z,4.48
2022-11-22T03:28:51.748Z,4.46
2022-11-22T03:31:21.129Z,4.47
2022-11-22T03:33:49.204Z,4.53
2022-11-22T03:36:17.082Z,4.58
2022-11-22T03:38:45.337Z,4.64
2022-11-22T03:41:15.385Z,4.65
2022-11-22T03:43:43.338Z,4.64
2022-11-22T03:46:15.770Z,4.67
2022-11-22T03:48:45.061Z,4.68
2022-11-22T03:51:13.221Z,4.62
2022-11-22T03:53:41.099Z,4.56
2022-11-22T03:56:09.144Z,4.55
2022-11-22T03:58:37.012Z,4.09
2022-11-22T04:01:05.098Z,4.26
2022-11-22T04:03:33.199Z,4.27
2022-11-22T04:06:02.801Z,4.33
2022-11-22T04:08:30.780Z,4.37
2022-11-22T04:10:58.744Z,4.34
2022-11-22T04:13:47.320Z,4.11
2022-11-22T04:16:14.454Z,4.15
2022-11-22T04:18:42.558Z,4.24
2022-11-22T04:21:29.516Z,4.28
2022-11-22T04:24:11.368Z,4.09
2022-11-22T04:26:39.428Z,4.09
2022-11-22T04:29:10.143Z,3.96
2022-11-22T04:31:55.866Z,4.09
2022-11-22T04:34:24.417Z,4.19
2022-11-22T04:36:53.750Z,4.14
2022-11-22T04:39:21.798Z,4.13
2022-11-22T04:42:10.399Z,4.10
2022-11-22T04:44:42.999Z,3.95
2022-11-22T04:47:12.110Z,3.90
2022-11-22T04:49:40.130Z,3.99
2022-11-22T04:52:28.241Z,4.07
2022-11-22T04:54:56.205Z,3.98
2022-11-22T04:57:24.129Z,4.02
2022-11-22T04:59:52.222Z,4.06
2022-11-22T05:02:20.213Z,4.09
2022-11-22T05:04:50.825Z,4.02
2022-11-22T05:07:22.373Z,4.02
2022-11-22T05:09:50.281Z,4.01
2022-11-22T05:12:18.265Z,3.96
2022-11-22T05:14:46.158Z,3.81
2022-11-22T05:17:14.105Z,3.88
2022-11-22T05:19:47.789Z,3.89
2022-11-22T05:22:17.246Z,3.88
2022-11-22T05:24:45.624Z,3.87
2022-11-22T05:27:13.537Z,3.76
2022-11-22T05:29:41.478Z,3.75
2022-11-22T05:32:09.471Z,3.71
2022-11-22T05:34:37.437Z,3.70
2022-11-22T05:37:05.457Z,3.53
2022-11-22T05:39:33.407Z,3.60
2022-11-22T05:42:05.901Z,3.53
2022-11-22T05:44:34.165Z,3.59
2022-11-22T05:47:02.117Z,3.58
2022-11-22T05:49:30.328Z,3.62
2022-11-22T05:51:58.476Z,3.60
2022-11-22T05:54:26.469Z,3.55
2022-11-22T05:56:54.389Z,3.57
2022-11-22T05:59:23.912Z,3.51
2022-11-22T06:01:51.807Z,3.56
2022-11-22T06:04:19.951Z,3.53
2022-11-22T06:06:47.984Z,3.56
2022-11-22T06:09:16.116Z,3.51
2022-11-22T06:11:44.078Z,3.50
2022-11-22T06:14:12.042Z,3.52
2022-11-22T06:16:41.327Z,3.40
2022-11-22T06:19:09.413Z,3.46
2022-11-22T06:21:37.392Z,3.54
2022-11-22T06:24:05.713Z,3.55
2022-11-22T06:26:39.095Z,3.59
2022-11-22T06:29:07.612Z,3.45
2022-11-22T06:31:35.621Z,3.43
2022-11-22T06:34:06.002Z,3.38
2022-11-22T06:36:35.910Z,3.47
2022-11-22T06:39:04.094Z,3.51
2022-11-22T06:41:34.767Z,3.32
2022-11-22T06:44:06.638Z,3.39
2022-11-22T06:46:35.348Z,3.48
2022-11-22T06:49:05.082Z,3.37
2022-11-22T06:51:33.779Z,3.19
2022-11-22T06:54:01.814Z,3.08
2022-11-22T06:56:31.826Z,3.16
2022-11-22T06:59:03.187Z,3.01
2022-11-22T07:01:31.720Z,2.92
2022-11-22T07:04:00.609Z,3.11
2022-11-22T07:06:31.640Z,3.19
2022-11-22T07:09:00.512Z,3.17
2022-11-22T07:11:32.750Z,3.14
2022-11-22T07:14:07.498Z,3.37
2022-11-22T07:16:37.040Z,3.39
2022-11-22T07:19:05.559Z,3.38
2022-11-22T07:21:37.432Z,3.24
2022-11-22T07:24:07.671Z,3.39
2022-11-22T07:26:35.848Z,3.53
2022-11-22T07:29:04.152Z,3.63
2022-11-22T07:31:32.164Z,3.67
2022-11-22T07:34:00.163Z,3.86
2022-11-22T07:36:29.647Z,3.95
2022-11-22T07:38:59.395Z,3.99
2022-11-22T07:41:27.414Z,3.91
2022-11-22T07:43:55.805Z,4.10
2022-11-22T07:46:26.460Z,4.29
2022-11-22T07:48:54.522Z,4.31
2022-11-22T07:51:22.771Z,4.39
2022-11-22T07:53:50.783Z,4.45
2022-11-22T07:56:20.419Z,4.41
2022-11-22T07:58:48.544Z,4.53
2022-11-22T08:01:18.363Z,4.51
2022-11-22T08:03:47.218Z,4.62
2022-11-22T08:06:16.625Z,4.61
2022-11-22T08:08:45.698Z,4.74
2022-11-22T08:11:14.372Z,4.87
2022-11-22T08:13:44.684Z,4.80
2022-11-22T08:16:15.044Z,4.80
2022-11-22T08:18:47.117Z,4.93
2022-11-22T08:21:15.931Z,4.92
2022-11-22T08:23:44.504Z,5.04
2022-11-22T08:26:14.516Z,5.14
2022-11-22T08:28:44.751Z,5.12
2022-11-22T08:31:14.938Z,5.21
2022-11-22T08:33:43.185Z,5.04
2022-11-22T08:36:11.346Z,5.28
2022-11-22T08:38:39.700Z,5.17
2022-11-22T08:41:08.419Z,5.30
2022-11-22T08:43:36.647Z,5.34
2022-11-22T08:46:06.577Z,5.45
2022-11-22T08:48:36.814Z,5.46
2022-11-22T08:51:07.343Z,5.43
2022-11-22T08:53:37.343Z,5.60
2022-11-22T08:56:07.087Z,5.54
2022-11-22T08:58:35.593Z,5.55
2022-11-22T09:01:08.412Z,5.59
2022-11-22T09:03:37.126Z,5.57
2022-11-22T09:09:08.738Z,5.66
2022-11-22T09:11:42.017Z,5.59
2022-11-22T09:14:09.957Z,5.83
2022-11-22T09:16:39.245Z,5.88
2022-11-22T09:19:07.259Z,5.75
2022-11-22T09:21:35.266Z,5.84
2022-11-22T09:24:03.342Z,5.96
2022-11-22T09:26:31.423Z,6.21
2022-11-22T09:28:59.296Z,6.13
2022-11-22T09:31:27.229Z,6.14
2022-11-22T09:33:56.503Z,6.24
2022-11-22T09:36:26.952Z,5.79
2022-11-22T09:38:56.208Z,5.52
2022-11-22T09:42:05.334Z,5.66
2022-11-22T09:44:43.399Z,5.66
2022-11-22T09:47:22.957Z,5.36
2022-11-22T09:50:04.587Z,5.58
2022-11-22T09:52:38.317Z,5.96
2022-11-22T09:55:12.332Z,5.33
2022-11-22T09:57:45.607Z,5.18
2022-11-22T10:00:20.924Z,4.86
2022-11-22T10:03:00.343Z,5.10
2022-11-22T10:05:35.746Z,5.85
2022-11-22T10:08:27.278Z,6.20
2022-11-22T10:10:58.643Z,6.04
2022-11-22T10:13:32.571Z,6.21
2022-11-22T10:16:09.927Z,6.18
2022-11-22T10:18:43.333Z,6.42
2022-11-22T10:21:14.393Z,6.62
2022-11-22T10:23:44.306Z,6.57
2022-11-22T10:26:23.290Z,6.00
2022-11-22T10:29:05.326Z,6.40
2022-11-22T10:31:42.279Z,6.32
2022-11-22T10:34:20.005Z,6.40
2022-11-22T10:36:57.064Z,6.33
2022-11-22T10:39:42.439Z,6.51
2022-11-22T10:42:24.361Z,6.76
2022-11-22T10:45:01.947Z,6.90
2022-11-22T10:47:54.195Z,6.66
2022-11-22T10:50:27.681Z,6.96
2022-11-22T10:53:06.711Z,7.16
2022-11-22T10:55:53.059Z,7.29
2022-11-22T10:58:33.936Z,7.23
2022-11-22T11:01:08.425Z,7.10
2022-11-22T11:03:40.120Z,7.24
2022-11-22T11:06:24.526Z,7.58
2022-11-22T11:11:56.189Z,7.60
2022-11-22T11:14:33.890Z,7.75
2022-11-22T11:17:03.963Z,7.83
2022-11-22T11:19:38.274Z,7.70
2022-11-22T11:22:26.122Z,7.57
2022-11-22T11:25:31.595Z,7.44
2022-11-22T11:28:03.900Z,7.57
2022-11-22T11:30:40.080Z,7.83
2022-11-22T11:33:19.533Z,7.88
2022-11-22T11:35:48.410Z,7.68
2022-11-22T11:38:36.408Z,7.90
2022-11-22T11:41:25.212Z,8.08
2022-11-22T11:43:54.148Z,8.30
2022-11-22T11:46:23.760Z,9.37
2022-11-22T11:48:53.330Z,10.19
2022-11-22T11:51:38.653Z,11.25
2022-11-22T11:54:12.134Z,12.12
2022-11-22T11:56:52.306Z,12.59
2022-11-22T11:59:22.334Z,12.65
2022-11-22T12:01:58.482Z,13.30
2022-11-22T12:04:29.933Z,14.14
2022-11-22T12:07:04.244Z,15.08
2022-11-22T12:09:37.537Z,15.23
2022-11-22T12:12:31.157Z,16.12
2022-11-22T12:15:11.927Z,15.56
2022-11-22T12:17:50.010Z,15.42
2022-11-22T12:20:23.155Z,15.86
2022-11-22T12:23:08.039Z,14.96
2022-11-22T12:25:45.168Z,14.54
2022-11-22T12:28:19.990Z,14.39
2022-11-22T12:30:54.262Z,14.65
2022-11-22T12:33:28.697Z,14.53
2022-11-22T12:35:58.548Z,13.89
2022-11-22T12:38:33.025Z,13.57
2022-11-22T12:41:04.543Z,13.25
2022-11-22T12:43:39.129Z,13.38
2022-11-22T12:46:13.059Z,13.12
2022-11-22T12:48:48.911Z,12.90
2022-11-22T12:51:24.904Z,12.75
2022-11-22T12:53:54.225Z,13.09
2022-11-22T12:56:33.382Z,13.24
2022-11-22T12:59:14.759Z,13.09
2022-11-22T13:01:48.947Z,12.62
2022-11-22T13:04:23.736Z,12.69
2022-11-22T13:06:58.776Z,12.90
2022-11-22T13:09:31.575Z,12.28
2022-11-22T13:12:04.164Z,12.01
2022-11-22T13:14:36.976Z,12.23
2022-11-22T13:17:08.316Z,11.83
2022-11-22T13:19:47.083Z,12.26
2022-11-22T13:22:26.870Z,11.84
2022-11-22T13:25:10.450Z,12.20
2022-11-22T13:27:44.373Z,12.27
2022-11-22T13:30:20.727Z,12.29
2022-11-22T13:32:52.045Z,11.95
2022-11-22T13:35:27.724Z,12.16
2022-11-22T13:37:58.032Z,11.96
2022-11-22T13:40:32.108Z,12.10
2022-11-22T13:43:50.410Z,11.60
2022-11-22T13:46:54.464Z,11.72
2022-11-22T13:49:41.093Z,11.61
2022-11-22T13:52:51.345Z,11.63
2022-11-22T13:55:36.013Z,11.36
2022-11-22T13:58:55.644Z,11.36
2022-11-22T14:01:59.135Z,11.28
2022-11-22T14:04:45.219Z,9.41
2022-11-22T14:07:35.843Z,9.05
2022-11-22T14:10:05.187Z,8.48
2022-11-22T14:13:18.418Z,7.95
2022-11-22T14:15:58.271Z,6.67
2022-11-22T14:18:52.805Z,6.56
2022-11-22T14:21:41.564Z,7.10
2022-11-22T14:24:15.426Z,7.14
2022-11-22T14:26:54.503Z,6.97
2022-11-22T14:29:53.785Z,6.76
2022-11-22T14:32:23.801Z,7.02
2022-11-22T14:35:26.370Z,6.40
2022-11-22T14:38:03.863Z,6.42
2022-11-22T14:40:37.531Z,6.55
2022-11-22T14:43:35.528Z,6.75
2022-11-22T14:46:37.355Z,6.89
2022-11-22T14:49:07.735Z,6.98
2022-11-22T14:51:37.837Z,7.07
2022-11-22T14:54:20.538Z,7.18
2022-11-22T14:56:49.440Z,7.21
2022-11-22T14:59:37.023Z,7.01
2022-11-22T15:02:31.331Z,7.10
2022-11-22T15:09:13.282Z,7.12
2022-11-22T15:09:21.983Z,7.10
2022-11-22T15:11:29.591Z,6.94
2022-11-22T15:14:46.465Z,6.94
2022-11-22T15:57:38.117Z,6.94
2022-11-22T16:00:12.197Z,6.83
2022-11-22T16:02:48.693Z,6.82
2022-11-22T16:06:08.153Z,6.69
2022-11-22T16:08:15.570Z,6.84
2022-11-22T16:10:45.668Z,6.88
2022-11-22T16:13:29.144Z,6.68
2022-11-22T16:16:08.884Z,6.72
2022-11-22T16:18:37.071Z,6.82
2022-11-22T16:21:07.262Z,6.91
2022-11-22T16:23:37.434Z,6.90
2022-11-22T16:26:24.886Z,6.76
2022-11-22T16:28:55.369Z,6.77
2022-11-22T16:31:24.976Z,6.76
2022-11-22T16:33:54.735Z,6.77
2022-11-22T16:36:24.776Z,6.66
2022-11-22T16:38:52.707Z,6.75
2022-11-22T16:41:23.706Z,6.67
2022-11-22T16:43:57.774Z,6.50
2022-11-22T16:46:25.765Z,6.60
2022-11-22T16:48:54.402Z,6.45
2022-11-22T16:51:24.715Z,6.46
2022-11-22T16:53:54.273Z,6.37
2022-11-22T16:56:23.429Z,6.45
2022-11-22T16:58:52.695Z,6.49
2022-11-22T17:01:24.178Z,6.40
2022-11-22T17:03:54.371Z,6.36
2022-11-22T17:06:24.437Z,6.47
2022-11-22T17:08:54.523Z,6.63
2022-11-22T17:11:24.889Z,6.28
2022-11-22T17:13:53.146Z,6.48
2022-11-22T17:16:22.664Z,6.61
2022-11-22T17:18:50.693Z,6.53
2022-11-22T17:21:25.763Z,6.34
2022-11-22T17:23:55.909Z,6.64
2022-11-22T17:26:24.607Z,6.55
2022-11-22T17:28:52.667Z,6.41
2022-11-22T17:31:23.481Z,6.24
2022-11-22T17:33:52.458Z,6.39
2022-11-22T17:36:26.395Z,6.09
2022-11-22T17:38:54.361Z,6.16
2022-11-22T17:41:22.633Z,6.34
2022-11-22T17:43:51.747Z,6.33
2022-11-22T17:46:20.058Z,6.33
2022-11-22T17:48:54.095Z,6.24
2022-11-22T17:51:22.695Z,6.16
2022-11-22T17:53:50.741Z,6.14
2022-11-22T17:56:18.684Z,6.22
2022-11-22T17:58:46.889Z,6.06
2022-11-22T18:01:16.483Z,6.01
2022-11-22T18:03:45.477Z,5.92
2022-11-22T18:06:16.002Z,5.71
2022-11-22T18:08:47.197Z,5.83
2022-11-22T18:11:16.174Z,5.79
2022-11-22T18:13:44.640Z,5.69
2022-11-22T18:16:15.713Z,5.87
2022-11-22T18:18:59.530Z,5.77
2022-11-22T18:21:30.282Z,5.45
2022-11-22T18:23:58.836Z,5.45
2022-11-22T18:26:42.986Z,5.57
2022-11-22T18:32:01.438Z,5.67
2022-11-22T18:34:29.599Z,5.66
2022-11-22T18:37:03.832Z,5.70
2022-11-22T18:39:33.941Z,5.54
2022-11-22T18:42:02.494Z,5.48
2022-11-22T18:44:30.524Z,5.37
2022-11-22T18:46:58.456Z,5.16
2022-11-22T18:49:26.419Z,5.31
2022-11-22T18:51:54.477Z,5.29
2022-11-22T18:54:23.840Z,5.21
2022-11-22T18:56:51.814Z,5.29
2022-11-22T18:59:20.053Z,5.20
2022-11-22T19:01:48.232Z,5.12
2022-11-22T19:04:17.036Z,5.07
2022-11-22T19:06:45.995Z,4.92
2022-11-22T19:09:14.072Z,4.97
2022-11-22T19:11:43.544Z,5.00
2022-11-22T19:14:11.486Z,5.01
2022-11-22T19:16:39.501Z,4.98
2022-11-22T19:19:08.464Z,5.01
2022-11-22T19:21:36.409Z,5.06
2022-11-22T19:24:04.766Z,4.85
2022-11-22T19:26:32.836Z,4.96
2022-11-22T19:29:02.888Z,4.80
2022-11-22T19:31:31.691Z,4.78
2022-11-22T19:34:00.104Z,4.71
2022-11-22T19:36:33.778Z,4.94
2022-11-22T19:39:03.765Z,4.85
2022-11-22T19:41:32.054Z,4.76
2022-11-22T19:44:00.154Z,4.89
2022-11-22T19:46:30.133Z,4.81
2022-11-22T19:48:59.767Z,4.82
2022-11-22T19:51:30.982Z,4.85
2022-11-22T19:54:02.242Z,4.76
2022-11-22T19:56:32.936Z,4.68
2022-11-22T19:59:02.405Z,4.67
2022-11-22T20:01:33.662Z,4.82
2022-11-22T20:04:04.514Z,4.82
2022-11-22T20:06:33.524Z,4.82
2022-11-22T20:09:02.904Z,4.65
2022-11-22T20:11:30.825Z,4.70
2022-11-22T20:13:59.058Z,4.68
2022-11-22T20:16:29.074Z,4.38
2022-11-22T20:18:59.797Z,4.49
2022-11-22T20:21:33.970Z,4.28
2022-11-22T20:24:02.910Z,4.35
2022-11-22T20:26:32.459Z,4.27
2022-11-22T20:29:02.217Z,4.30
2022-11-22T20:31:32.165Z,4.37
2022-11-22T20:34:03.118Z,4.46
2022-11-22T20:36:32.295Z,4.37
2022-11-22T20:39:04.161Z,4.40
2022-11-22T20:41:37.290Z,4.46
2022-11-22T20:44:06.769Z,4.35
2022-11-22T20:46:37.760Z,4.34
2022-11-22T20:49:07.821Z,4.38
2022-11-22T20:51:39.659Z,4.33
2022-11-22T20:54:08.622Z,4.08
2022-11-22T20:56:37.254Z,4.01
2022-11-22T20:59:05.304Z,4.00
2022-11-22T21:01:33.509Z,3.98
2022-11-22T21:04:01.549Z,4.31
2022-11-22T21:06:32.878Z,4.44
2022-11-22T21:09:00.860Z,4.30
2022-11-22T21:11:31.049Z,4.38
2022-11-22T21:13:59.733Z,4.26
2022-11-22T21:16:30.071Z,4.36
2022-11-22T21:19:01.045Z,4.27
2022-11-22T21:21:31.673Z,4.23
2022-11-22T21:24:01.513Z,4.07
2022-11-22T21:26:30.419Z,4.33
2022-11-22T21:28:59.461Z,4.33
2022-11-22T21:31:28.297Z,4.30
2022-11-22T21:33:56.278Z,4.33
2022-11-22T21:36:24.195Z,4.23
2022-11-22T21:38:53.593Z,4.33
2022-11-22T21:41:40.318Z,4.21
2022-11-22T21:44:09.536Z,4.06
2022-11-22T21:46:37.870Z,4.14
2022-11-22T21:49:05.830Z,4.21
2022-11-22T21:51:33.870Z,4.34
2022-11-22T21:54:03.710Z,4.17
2022-11-22T21:56:31.928Z,3.98
2022-11-22T21:59:00.167Z,4.05
2022-11-22T22:01:28.489Z,4.05
2022-11-22T22:03:56.524Z,3.95
2022-11-22T22:06:25.209Z,3.76
2022-11-22T22:08:53.421Z,3.98
2022-11-22T22:11:23.133Z,3.94
2022-11-22T22:13:53.311Z,4.25
2022-11-22T22:16:23.657Z,4.25
2022-11-22T22:18:51.713Z,4.19
2022-11-22T22:21:20.439Z,4.22
2022-11-22T22:23:48.644Z,4.25
2022-11-22T22:26:18.277Z,4.00
2022-11-22T22:28:47.790Z,4.08
2022-11-22T22:31:21.568Z,4.17
2022-11-22T22:33:51.224Z,4.23
2022-11-22T22:36:20.098Z,4.24
2022-11-22T22:38:48.285Z,4.26
2022-11-22T22:41:16.292Z,4.27
2022-11-22T22:43:46.487Z,4.27
2022-11-22T22:46:17.512Z,4.28
2022-11-22T22:48:46.053Z,4.19
2022-11-22T22:51:16.468Z,4.20
2022-11-22T22:53:46.553Z,4.17
2022-11-22T22:56:15.978Z,4.26
2022-11-22T22:58:44.545Z,4.29
2022-11-22T23:01:17.550Z,4.31
2022-11-22T23:03:48.864Z,4.27
2022-11-22T23:06:17.601Z,4.15
2022-11-22T23:08:47.361Z,4.18
2022-11-22T23:11:16.758Z,4.10
2022-11-22T23:13:45.303Z,3.73
2022-11-22T23:16:15.191Z,3.35
2022-11-22T23:18:45.819Z,3.32
2022-11-22T23:21:15.927Z,3.40
2022-11-22T23:23:46.985Z,3.41
2022-11-22T23:26:15.028Z,3.27
2022-11-22T23:28:42.930Z,3.11
2022-11-22T23:31:12.449Z,3.02
2022-11-22T23:33:40.864Z,3.36
2022-11-22T23:36:12.525Z,3.20
2022-11-22T23:38:40.816Z,3.16
2022-11-22T23:41:10.100Z,3.21
2022-11-22T23:43:37.998Z,3.19
2022-11-22T23:46:06.145Z,3.01
2022-11-22T23:48:34.092Z,2.99
2022-11-22T23:51:04.274Z,3.13
2022-11-22T23:53:33.705Z,2.99
2022-11-22T23:56:06.659Z,2.69
2022-11-22T23:58:34.961Z,2.81
